Time;durP1;ratioP1;P1;durP2;ratioP2;P2;SDS_P1;SDS_P2;PMS_P1;PMS_P2;Temp;Humidity;BMP_temperature;BMP_pressure;BME280_temperature;BME280_humidity;BME280_pressure;Samples;Min_cycle;Max_cycle;Signal;HPM_P1;HPM_P2
2022/10/13 00:03:34;;;;;;;6.47;3.50;;;;;;;20.70;63.90;63385.06;17368343;28;20215;-36
2022/10/13 00:11:51;;;;;;;5.70;3.17;;;;;;;20.70;63.95;63379.25;17367454;28;20261;-37
2022/10/13 00:20:11;;;;;;;7.20;3.70;;;;;;;20.70;63.92;63381.88;17358744;28;20219;-36
2022/10/13 00:28:28;;;;;;;5.40;3.17;;;;;;;20.67;64.13;63379.06;17353800;28;20268;-36
2022/10/13 00:36:46;;;;;;;6.53;3.50;;;;;;;20.66;64.11;63375.31;17369590;28;20370;-37
2022/10/13 00:45:07;;;;;;;6.10;3.30;;;;;;;20.63;64.07;63369.31;17366313;28;20222;-36
2022/10/13 00:53:32;;;;;;;5.07;3.10;;;;;;;20.61;64.02;63369.66;17367061;28;20231;-36
2022/10/13 01:01:50;;;;;;;5.87;3.73;;;;;;;20.60;64.06;63373.78;17364257;28;20234;-39
2022/10/13 01:10:09;;;;;;;8.53;3.70;;;;;;;20.58;64.31;63369.47;17363482;28;20231;-39
2022/10/13 01:18:34;;;;;;;6.40;3.47;;;;;;;20.57;64.05;63368.34;17368269;28;20200;-38
2022/10/13 01:27:05;;;;;;;5.70;3.53;;;;;;;20.57;64.14;63370.41;17357684;28;20227;-37
2022/10/13 01:35:33;;;;;;;6.20;3.17;;;;;;;20.52;64.10;63362.72;17364804;28;20219;-37
2022/10/13 01:43:57;;;;;;;5.43;3.33;;;;;;;20.50;64.30;63360.44;17359107;28;20219;-37
2022/10/13 01:52:18;;;;;;;5.00;2.90;;;;;;;20.49;64.27;63361.38;17366326;28;20310;-37
2022/10/13 02:00:42;;;;;;;5.10;3.30;;;;;;;20.48;64.31;63360.25;17366318;28;20219;-39
2022/10/13 02:09:06;;;;;;;8.90;3.67;;;;;;;20.48;64.27;63360.81;17361491;28;20215;-39
2022/10/13 02:17:25;;;;;;;6.27;3.00;;;;;;;20.49;64.13;63361.38;17361145;28;20200;-39
2022/10/13 02:25:44;;;;;;;5.40;3.10;;;;;;;20.47;64.18;63357.06;17366454;28;20227;-39
2022/10/13 02:34:01;;;;;;;5.60;3.30;;;;;;;20.43;64.23;63355.72;17356103;28;20349;-39
2022/10/13 02:42:19;;;;;;;5.00;3.23;;;;;;;20.44;64.12;63354.25;17370462;28;20300;-39
2022/10/13 02:50:36;;;;;;;5.70;3.43;;;;;;;20.42;64.28;63351.97;17366193;28;20227;-39
2022/10/13 02:58:54;;;;;;;6.60;3.30;;;;;;;20.39;64.23;63348.59;17373834;28;20235;-39
2022/10/13 03:07:11;;;;;;;6.33;3.63;;;;;;;20.41;64.22;63353.47;17372745;28;20208;-39
2022/10/13 03:15:30;;;;;;;6.13;2.90;;;;;;;20.39;64.15;63348.03;17391746;22;20296;-34
2022/10/13 03:23:46;;;;;;;4.90;2.90;;;;;;;20.37;64.10;63343.16;17376172;28;20235;-34
2022/10/13 03:32:05;;;;;;;5.23;2.83;;;;;;;20.36;64.24;63345.22;17368807;28;20349;-34
2022/10/13 03:40:22;;;;;;;6.77;3.40;;;;;;;20.34;64.24;63345.03;17368820;28;20217;-34
2022/10/13 03:48:40;;;;;;;4.33;2.47;;;;;;;20.33;64.31;63341.84;17369128;28;20311;-34
2022/10/13 03:56:57;;;;;;;7.37;3.10;;;;;;;20.33;64.02;63344.47;17371374;28;20264;-34
2022/10/13 04:05:15;;;;;;;6.00;3.20;;;;;;;20.32;64.18;63337.50;17372219;28;20230;-34
2022/10/13 04:13:33;;;;;;;5.87;3.37;;;;;;;20.29;64.19;63339.97;17372719;28;20227;-34
2022/10/13 04:21:52;;;;;;;9.53;3.10;;;;;;;20.28;64.20;63336.19;17371952;28;20223;-34
2022/10/13 04:30:11;;;;;;;5.10;3.00;;;;;;;20.26;64.24;63333.94;17372936;28;20242;-34
2022/10/13 04:38:29;;;;;;;4.80;2.90;;;;;;;20.26;64.09;63331.31;17366345;28;20200;-34
2022/10/13 04:46:46;;;;;;;6.17;3.10;;;;;;;20.24;64.18;63331.69;17365639;28;20239;-34
2022/10/13 04:55:05;;;;;;;5.00;3.07;;;;;;;20.23;63.94;63330.56;17364829;28;20214;-34
2022/10/13 05:03:22;;;;;;;5.10;2.83;;;;;;;20.24;64.12;63331.69;17352941;28;20230;-34
2022/10/13 05:11:40;;;;;;;7.83;3.13;;;;;;;20.23;64.12;63327.94;17365494;28;20247;-34
2022/10/13 05:19:57;;;;;;;6.50;3.20;;;;;;;20.19;64.14;63328.69;17370523;28;20211;-34
2022/10/13 05:28:15;;;;;;;4.33;2.70;;;;;;;20.19;64.09;63326.06;17359716;28;20224;-34
2022/10/13 05:36:34;;;;;;;5.57;2.57;;;;;;;20.18;64.08;63322.31;17365129;28;20232;-34
2022/10/13 05:44:56;;;;;;;4.43;3.00;;;;;;;20.18;63.95;63330.19;17398427;28;20284;-34
2022/10/13 05:53:13;;;;;;;5.10;2.90;;;;;;;20.17;64.02;63323.78;17421654;28;20242;-34
2022/10/13 06:01:34;;;;;;;4.60;2.90;;;;;;;20.17;63.95;63321.75;17383355;28;20345;-34
2022/10/13 06:09:51;;;;;;;12.47;4.80;;;;;;;18.01;61.73;63088.78;17352798;28;20253;-33
2022/10/13 06:18:10;;;;;;;11.33;5.27;;;;;;;19.52;58.40;63252.78;17371971;28;20571;-33
2022/10/13 06:26:26;;;;;;;8.30;4.60;;;;;;;19.91;59.07;63295.63;17374016;28;20251;-33
2022/10/13 06:34:45;;;;;;;12.07;4.70;;;;;;;20.00;59.31;63303.16;17369120;28;20589;-34
2022/10/13 06:43:01;;;;;;;14.43;4.83;;;;;;;20.15;60.36;63318.94;17376419;28;20220;-34
2022/10/13 06:51:20;;;;;;;22.20;6.33;;;;;;;20.44;60.47;63354.25;17359110;28;20590;-33
2022/10/13 06:59:36;;;;;;;24.77;4.93;;;;;;;20.36;61.29;63347.28;17349115;28;20632;-34
2022/10/13 07:07:55;;;;;;;14.97;4.80;;;;;;;20.42;61.84;63346.72;17345356;28;20705;-33
2022/10/13 07:16:11;;;;;;;9.93;4.77;;;;;;;20.46;61.81;63356.47;17369106;28;20730;-34
2022/10/13 07:24:30;;;;;;;14.70;3.83;;;;;;;20.53;62.67;63363.25;17361293;28;20567;-34
2022/10/13 07:32:47;;;;;;;14.03;4.57;;;;;;;20.57;62.73;63365.16;17354707;28;20243;-33
2022/10/13 07:41:08;;;;;;;12.63;4.37;;;;;;;20.59;62.79;63370.06;17338482;28;20235;-33
2022/10/13 07:49:25;;;;;;;12.13;3.73;;;;;;;20.65;62.94;63376.81;17356377;28;20712;-33
2022/10/13 07:57:43;;;;;;;18.07;3.90;;;;;;;20.69;63.46;63386.56;17361877;28;20588;-33
2022/10/13 08:06:01;;;;;;;11.63;3.77;;;;;;;20.70;63.19;63379.81;17360548;28;20228;-33
2022/10/13 08:14:20;;;;;;;8.53;3.60;;;;;;;20.69;62.92;63386.56;17357878;28;20687;-33
2022/10/13 08:22:37;;;;;;;8.47;4.03;;;;;;;20.74;63.05;63389.03;17339799;28;20631;-33
2022/10/13 08:30:56;;;;;;;11.70;4.10;;;;;;;20.78;63.29;63394.09;17354298;28;20714;-32
2022/10/13 08:39:13;;;;;;;11.80;4.93;;;;;;;20.86;63.98;63397.88;17358256;28;20658;-33
2022/10/13 08:47:40;;;;;;;12.53;5.93;;;;;;;20.91;63.51;63405.56;17341525;28;20707;-33
2022/10/13 08:56:00;;;;;;;9.53;4.90;;;;;;;20.96;63.88;63410.63;17437259;22;20556;-32
2022/10/13 09:04:30;;;;;;;7.80;4.20;;;;;;;21.00;64.28;63415.16;17414201;28;20198;-32
2022/10/13 09:12:47;;;;;;;20.67;4.33;;;;;;;21.05;64.66;63423.97;17409821;28;20565;-33
2022/10/13 09:21:20;;;;;;;9.57;3.93;;;;;;;21.11;64.54;63427.56;17417843;28;20255;-32
2022/10/13 09:29:37;;;;;;;15.80;4.60;;;;;;;21.15;64.50;63429.44;17431015;28;22011;-32
2022/10/13 09:38:04;;;;;;;7.23;3.97;;;;;;;21.14;64.72;63428.31;17422424;28;20669;-33
2022/10/13 09:46:23;;;;;;;7.67;4.17;;;;;;;21.17;64.77;63431.13;17425534;27;20790;-33
2022/10/13 09:54:46;;;;;;;9.23;3.73;;;;;;;21.14;64.70;63433.56;17437949;28;20608;-35
2022/10/13 10:03:10;;;;;;;7.30;3.60;;;;;;;21.21;64.78;63440.91;17430186;28;20728;-34
2022/10/13 10:11:33;;;;;;;9.20;4.10;;;;;;;21.23;64.85;63437.91;17433509;27;20753;-34
2022/10/13 10:20:02;;;;;;;9.40;4.00;;;;;;;21.21;65.23;63436.22;17427293;27;20726;-34
2022/10/13 10:28:43;;;;;;;11.17;5.00;;;;;;;21.26;65.13;63444.47;17445781;27;20595;-32
2022/10/13 10:37:14;;;;;;;10.57;4.43;;;;;;;21.34;65.44;63453.50;17433020;28;20973;-32
2022/10/13 10:45:35;;;;;;;10.10;3.80;;;;;;;21.39;64.96;63458.06;17446185;27;20691;-33
2022/10/13 10:54:02;;;;;;;14.50;3.57;;;;;;;21.48;65.12;63470.84;17431467;28;20721;-34
2022/10/13 11:02:37;;;;;;;10.50;3.90;;;;;;;21.51;64.96;63474.78;17435777;28;20815;-33
2022/10/13 11:11:27;;;;;;;10.33;3.53;;;;;;;21.53;65.63;63473.84;17425208;27;20789;-32
2022/10/13 11:19:47;;;;;;;6.50;3.40;;;;;;;21.65;65.13;63490.03;17442371;28;20698;-32
2022/10/13 11:28:46;;;;;;;9.40;4.30;;;;;;;21.64;65.13;63488.88;17428907;28;20717;-33
2022/10/13 11:37:16;;;;;;;6.30;3.33;;;;;;;21.69;64.51;63491.91;17416848;27;20687;-32
2022/10/13 11:45:47;;;;;;;8.27;3.30;;;;;;;21.74;64.71;63500.19;17411092;28;20777;-32
2022/10/13 11:54:14;;;;;;;9.33;3.87;;;;;;;21.78;64.43;63502.06;17422639;27;20669;-32
2022/10/13 12:02:31;;;;;;;10.17;3.47;;;;;;;21.97;63.64;63517.13;17416452;28;20707;-32
2022/10/13 12:10:57;;;;;;;7.83;4.30;;;;;;;22.25;62.29;63556.66;17423875;27;20755;-32
2022/10/13 12:19:20;;;;;;;13.67;3.83;;;;;;;22.74;60.93;63604.47;17414046;28;20230;-32
2022/10/13 12:27:46;;;;;;;6.50;3.37;;;;;;;27.57;47.08;64134.25;17416430;28;20228;-32
2022/10/13 12:36:14;;;;;;;10.90;3.20;;;;;;;28.53;44.46;64246.84;17403871;28;20226;-32
2022/10/13 12:44:33;;;;;;;6.77;3.30;;;;;;;27.49;45.99;64130.47;17418751;27;20200;-32
2022/10/13 12:52:51;;;;;;;7.70;3.63;;;;;;;23.29;57.63;63665.50;17408499;28;20224;-32
2022/10/13 13:01:28;;;;;;;8.20;3.60;;;;;;;22.44;60.56;63574.34;17427609;28;20230;-32
2022/10/13 13:10:00;;;;;;;8.70;3.40;;;;;;;22.19;61.57;63544.63;17416353;28;20376;-32
2022/10/13 13:18:41;;;;;;;7.67;3.47;;;;;;;22.02;62.47;63528.03;17411349;28;20224;-32
2022/10/13 13:26:58;;;;;;;8.10;3.33;;;;;;;21.93;62.82;63520.50;17397696;28;20307;-32
2022/10/13 13:35:16;;;;;;;11.47;5.90;;;;;;;20.88;57.76;63405.38;17403732;28;20249;-32
2022/10/13 13:43:33;;;;;;;22.47;5.00;;;;;;;21.42;58.12;63461.44;17402831;28;20219;-33
2022/10/13 13:51:51;;;;;;;9.83;4.07;;;;;;;21.55;59.05;63473.47;17413327;28;20227;-32
2022/10/13 14:00:10;;;;;;;8.40;3.80;;;;;;;21.66;59.59;63488.53;17409096;28;20226;-32
2022/10/13 14:08:31;;;;;;;13.50;4.67;;;;;;;21.68;60.47;63490.78;17392828;28;20250;-32
2022/10/13 14:16:48;;;;;;;12.70;4.27;;;;;;;21.72;60.83;63500.00;17430205;28;20860;-32
2022/10/13 14:25:08;;;;;;;19.57;4.57;;;;;;;21.72;60.95;63497.34;17402957;28;20204;-32
2022/10/13 14:33:24;;;;;;;8.00;4.03;;;;;;;21.64;61.40;63488.88;17430848;28;20325;-32
2022/10/13 14:41:43;;;;;;;12.40;4.20;;;;;;;21.62;61.80;63486.06;17430577;28;20237;-33
2022/10/13 14:50:00;;;;;;;11.33;5.80;;;;;;;21.74;61.57;63494.34;17436772;27;20219;-33
2022/10/13 14:58:19;;;;;;;6.40;3.80;;;;;;;21.75;62.18;63500.75;17423087;27;20319;-32
2022/10/13 15:06:38;;;;;;;25.27;3.73;;;;;;;21.72;62.37;63497.34;17418347;28;20228;-31
2022/10/13 15:14:56;;;;;;;10.30;3.90;;;;;;;21.70;62.76;63493.03;17247139;22;20226;-38
2022/10/13 15:23:13;;;;;;;6.73;3.53;;;;;;;21.69;62.80;63491.91;17151695;28;20253;-38
2022/10/13 15:31:31;;;;;;;11.00;3.73;;;;;;;21.68;62.56;63493.41;17156207;28;20311;-39
2022/10/13 15:39:48;;;;;;;9.53;4.27;;;;;;;21.67;62.88;63492.28;17140806;28;20222;-38
2022/10/13 15:48:08;;;;;;;11.87;3.90;;;;;;;21.64;62.75;63483.63;17152172;28;20214;-38
2022/10/13 15:56:25;;;;;;;7.83;4.50;;;;;;;21.66;62.03;63491.16;17154763;28;20224;-39
2022/10/13 16:04:44;;;;;;;13.63;4.63;;;;;;;21.69;62.59;63496.59;17161680;28;20233;-39
2022/10/13 16:13:00;;;;;;;7.40;4.50;;;;;;;21.74;63.12;63492.28;17144151;28;20233;-38
2022/10/13 16:21:21;;;;;;;10.10;4.70;;;;;;;21.76;63.81;63504.50;17144711;28;20271;-38
2022/10/13 16:29:38;;;;;;;10.93;5.30;;;;;;;21.84;64.79;63508.28;17148271;28;20222;-38
2022/10/13 16:37:57;;;;;;;13.17;4.80;;;;;;;21.73;64.31;63493.78;17139301;28;20191;-38
2022/10/13 16:46:16;;;;;;;21.03;6.60;;;;;;;21.68;63.92;63488.16;17138176;28;20226;-38
2022/10/13 16:54:34;;;;;;;10.73;4.70;;;;;;;21.65;64.14;63490.03;17137904;28;20236;-38
2022/10/13 17:02:51;;;;;;;19.50;5.10;;;;;;;21.65;64.32;63492.06;17134759;28;20242;-38
2022/10/13 17:11:11;;;;;;;12.00;4.90;;;;;;;21.66;64.95;63488.53;17143262;28;20218;-38
2022/10/13 17:19:28;;;;;;;9.40;4.70;;;;;;;21.68;64.60;63495.47;17139939;28;20226;-38
2022/10/13 17:27:46;;;;;;;21.47;5.57;;;;;;;21.70;64.66;63495.09;17145338;28;20229;-39
2022/10/13 17:36:06;;;;;;;18.37;5.43;;;;;;;21.72;64.59;63497.91;17138941;28;20233;-38
2022/10/13 17:44:25;;;;;;;14.53;5.13;;;;;;;21.74;64.39;63494.91;17134017;28;20223;-38
2022/10/13 17:52:41;;;;;;;20.73;5.10;;;;;;;21.75;64.85;63501.31;17136212;28;20233;-40
2022/10/13 18:01:02;;;;;;;14.63;6.43;;;;;;;20.03;60.55;63308.03;17137661;28;20213;-38
2022/10/13 18:09:23;;;;;;;10.40;5.90;;;;;;;19.23;62.17;63220.69;17146811;28;20320;-38
2022/10/13 18:17:41;;;;;;;19.17;5.67;;;;;;;20.61;58.90;63375.47;17159216;28;20209;-39
2022/10/13 18:26:01;;;;;;;9.20;4.60;;;;;;;21.07;58.69;63420.44;17149196;28;20218;-40
2022/10/13 18:34:19;;;;;;;13.83;5.50;;;;;;;21.25;59.97;63440.72;17143914;28;20229;-40
2022/10/13 18:42:36;;;;;;;20.80;5.10;;;;;;;21.32;60.44;63448.63;17143846;28;20237;-40
2022/10/13 18:50:55;;;;;;;14.43;5.57;;;;;;;21.37;60.69;63453.16;17131445;28;20241;-40
2022/10/13 18:59:11;;;;;;;25.10;5.80;;;;;;;21.40;61.06;63456.53;17131690;28;20223;-39
2022/10/13 19:07:30;;;;;;;21.43;5.17;;;;;;;21.43;61.96;63465.19;17149046;28;20225;-36
2022/10/13 19:15:47;;;;;;;13.97;6.23;;;;;;;20.53;62.62;63368.53;17137956;28;20242;-37
2022/10/13 19:24:07;;;;;;;15.73;5.90;;;;;;;19.10;63.28;63208.66;17125092;28;20261;-37
2022/10/13 19:32:23;;;;;;;12.70;5.03;;;;;;;20.59;59.57;63372.69;17143449;28;20233;-36
2022/10/13 19:40:45;;;;;;;10.17;4.97;;;;;;;20.85;59.24;63402.00;17133969;28;20297;-37
2022/10/13 19:49:02;;;;;;;12.53;4.90;;;;;;;20.94;59.39;63411.00;17162936;28;20222;-36
2022/10/13 19:57:20;;;;;;;12.40;6.13;;;;;;;20.98;59.40;63410.28;17165246;28;20198;-36
2022/10/13 20:05:37;;;;;;;17.67;5.20;;;;;;;20.98;59.54;63410.28;17143470;28;20229;-36
2022/10/13 20:13:56;;;;;;;8.83;4.70;;;;;;;20.99;59.72;63411.41;17145823;28;20241;-36
2022/10/13 20:22:12;;;;;;;8.77;4.60;;;;;;;20.99;59.91;63416.66;17151720;28;20260;-40
2022/10/13 20:30:31;;;;;;;9.67;4.37;;;;;;;20.98;60.03;63415.53;17154125;28;20229;-39
2022/10/13 20:38:49;;;;;;;13.60;4.97;;;;;;;20.97;60.16;63409.72;17144959;28;20229;-41
2022/10/13 20:47:07;;;;;;;13.37;4.83;;;;;;;21.00;60.22;63417.78;17151061;28;20210;-39
2022/10/13 20:55:24;;;;;;;12.60;4.50;;;;;;;20.97;60.19;63409.13;17149518;28;20242;-38
2022/10/13 21:03:42;;;;;;;6.97;4.67;;;;;;;20.96;60.31;63408.56;17518892;22;20702;-30
2022/10/13 21:11:59;;;;;;;12.13;4.23;;;;;;;20.97;60.35;63411.75;17378279;28;20719;-31
2022/10/13 21:20:17;;;;;;;9.57;4.80;;;;;;;20.96;60.21;63410.63;17345503;28;20220;-31
2022/10/13 21:28:36;;;;;;;8.23;4.40;;;;;;;20.95;60.37;63412.16;17359107;28;20630;-31
2022/10/13 21:36:54;;;;;;;10.53;4.57;;;;;;;20.94;60.37;63408.38;17338274;28;20224;-32
2022/10/13 21:45:11;;;;;;;11.00;4.67;;;;;;;20.94;60.50;63408.38;17372121;28;20210;-32
2022/10/13 21:53:29;;;;;;;12.03;4.43;;;;;;;20.94;60.45;63408.38;17360881;28;20722;-34
2022/10/13 22:01:46;;;;;;;7.87;4.70;;;;;;;20.93;60.44;63405.19;17355962;28;20227;-32
2022/10/13 22:10:05;;;;;;;6.53;4.20;;;;;;;20.92;60.52;63403.50;17388135;28;20252;-32
2022/10/13 22:18:22;;;;;;;10.10;3.97;;;;;;;20.89;60.69;63406.50;17367448;28;20244;-32
2022/10/13 22:26:41;;;;;;;8.03;4.10;;;;;;;20.90;60.50;63407.06;17368427;28;20223;-32
2022/10/13 22:34:58;;;;;;;9.40;4.30;;;;;;;20.88;60.75;63400.13;17349774;28;20228;-33
2022/10/13 22:43:16;;;;;;;8.03;3.90;;;;;;;20.87;60.66;63401.63;17363097;28;20306;-32
2022/10/13 22:51:35;;;;;;;7.47;4.30;;;;;;;20.82;60.73;63393.34;17385419;28;20231;-31
2022/10/13 22:59:53;;;;;;;6.17;3.60;;;;;;;20.84;60.63;63397.66;17367057;28;20303;-31
2022/10/13 23:08:10;;;;;;;8.57;3.97;;;;;;;20.84;60.78;63395.59;17349043;28;20238;-31
2022/10/13 23:16:29;;;;;;;7.10;4.13;;;;;;;20.85;60.74;63396.75;17366727;28;20224;-32
2022/10/13 23:24:46;;;;;;;6.23;3.77;;;;;;;20.86;60.63;63397.31;17367268;28;20220;-32
2022/10/13 23:33:04;;;;;;;7.63;4.20;;;;;;;20.85;60.72;63391.50;17364422;28;20224;-32
2022/10/13 23:41:21;;;;;;;6.00;3.77;;;;;;;20.85;60.61;63402.00;17362854;28;20219;-32
2022/10/13 23:49:39;;;;;;;6.50;3.57;;;;;;;20.83;60.80;63394.47;17334079;28;20242;-33
2022/10/13 23:57:56;;;;;;;5.53;3.63;;;;;;;20.83;60.86;63399.72;17281850;28;20778;-33
